Hanna, OK

3:54 PM CDT on August 21, 2014 (GMT -0500)
Arrowhead Estates | Change Station
CLOSE
Current Station
Personal Weather Station
Location: Canadian, OK
Elevation: 682 ft
Nearby Weather Stations

Elev 682 ft 35.17 °N, 95.60 °W | Updated 3 minutes ago

Partly Cloudy
Partly Cloudy
95.0 °F
Feels Like 108 °F
N
7.0
Wind Variable Wind from WSW
Gusts 18.0 mph

Today
High -- | Low -- °F
--% Chance of Precip.
Yesterday
High -- | Low -- °F
Precip. -- in
6:47 AM 8:04 PM
Waning Crescent, 12% visible
Pressure 29.97 in
Visibility 10.0 miles
Clouds Few 4100 ft
Heat Index 108 °F
Dew Point 76 °F
Humidity 54%
Rainfall 0.00 in
Snow Depth Not available.
UV 4.5 out of 12
Pollen 9.30 out of 12
Air Quality Not available.
Flu Activity Not available.
METAR KMLC 211953Z AUTO 18008G16KT 120V210 10SM FEW041 33/23 A3000 RMK AO2 SLP148 T03280228

More Conditions Fewer Conditions

Pressure 29.97 in
Visibility 10.0 miles
Clouds Few 4100 ft
Heat Index 108 °F
Dew Point 76 °F
Humidity 54%
Rainfall 0.00 in
Snow Depth Not available.
UV 4.5 out of 12
Pollen 9.30 out of 12
Air Quality Not available.
Flu Activity Not available.
METAR KMLC 211953Z AUTO 18008G16KT 120V210 10SM FEW041 33/23 A3000 RMK AO2 SLP148 T03280228

More Conditions Fewer Conditions

10-Day Weather Forecast

Almanac

Astronomy

Aug. 21, 2014 Rise Set
Actual Time 6:47 AM CDT 8:04 PM CDT
Civil Twilight 6:21 AM CDT 8:31 PM CDT
Nautical Twilight 5:49 AM CDT 9:02 PM CDT
Astronomical Twilight 5:16 AM CDT 9:35 PM CDT
Moon 3:22 AM CDT 5:31 PM CDT
Length of Visible Light 14h 09m
Length of Day
13h 17m
Tomorrow will be 2m 1s shorter.
Waning Crescent, 12% of the Moon is Illuminated
Today
Waning Crescent
Aug 25
New
Sep 2
First Quarter
Sep 8
Full
Sep 15
Last Quarter

Today's Extremes

State Highs State Lows

Community

WunderPhotos

Upload Photos

1,746,017 photos uploaded!

WunderBlogs® & News

Nearby

Snow Depth

Station Depth Elevation
No new snow has been reported.

Earthquake Activity

City Distance Mag. Time & Date
Medford, Oklahoma 156 miles 2.7 2:28 AM CDT
2014-08-17
Medford, Oklahoma 156 miles 3.5 1:31 AM CDT
2014-08-17
Medford, Oklahoma 156 miles 3.8 1:18 AM CDT
2014-08-17
Medford, Oklahoma 149 miles 3.0 9:13 PM CDT
2014-08-16
Minimum magnitude displayed is 2.5.

Coastal Water Temperatures

Place Temperature
No Stations Reporting

Nearby Weather Stations